sensor_id;sensor_type;location;lat;lon;timestamp;P1;durP1;ratioP1;P2;durP2;ratioP2
67274;SDS011;55463;52.324;5.122;2022-12-18T00:01:16;75.50;;;24.38;;
67274;SDS011;55463;52.324;5.122;2022-12-18T00:03:44;81.93;;;25.88;;
67274;SDS011;55463;52.324;5.122;2022-12-18T00:06:09;77.53;;;27.20;;
67274;SDS011;55463;52.324;5.122;2022-12-18T00:08:35;73.40;;;24.98;;
67274;SDS011;55463;52.324;5.122;2022-12-18T00:11:04;71.40;;;23.90;;
67274;SDS011;55463;52.324;5.122;2022-12-18T00:13:30;65.47;;;24.40;;
67274;SDS011;55463;52.324;5.122;2022-12-18T00:16:00;81.10;;;26.90;;
67274;SDS011;55463;52.324;5.122;2022-12-18T00:20:52;82.32;;;26.92;;
67274;SDS011;55463;52.324;5.122;2022-12-18T00:23:18;81.30;;;26.48;;
67274;SDS011;55463;52.324;5.122;2022-12-18T00:25:43;77.80;;;27.08;;
67274;SDS011;55463;52.324;5.122;2022-12-18T00:28:08;87.90;;;27.75;;
67274;SDS011;55463;52.324;5.122;2022-12-18T00:30:34;103.35;;;30.02;;
67274;SDS011;55463;52.324;5.122;2022-12-18T00:32:59;81.35;;;26.75;;
67274;SDS011;55463;52.324;5.122;2022-12-18T00:35:24;86.70;;;28.60;;
67274;SDS011;55463;52.324;5.122;2022-12-18T00:37:50;82.35;;;25.67;;
67274;SDS011;55463;52.324;5.122;2022-12-18T00:40:15;78.68;;;26.45;;
67274;SDS011;55463;52.324;5.122;2022-12-18T00:42:40;84.55;;;26.48;;
67274;SDS011;55463;52.324;5.122;2022-12-18T00:45:22;79.03;;;26.33;;
67274;SDS011;55463;52.324;5.122;2022-12-18T00:47:50;69.97;;;25.50;;
67274;SDS011;55463;52.324;5.122;2022-12-18T00:50:16;74.85;;;25.45;;
67274;SDS011;55463;52.324;5.122;2022-12-18T00:52:41;69.28;;;25.23;;
67274;SDS011;55463;52.324;5.122;2022-12-18T00:55:07;88.10;;;28.70;;
67274;SDS011;55463;52.324;5.122;2022-12-18T00:57:33;81.78;;;26.35;;
67274;SDS011;55463;52.324;5.122;2022-12-18T00:59:59;76.63;;;26.50;;
67274;SDS011;55463;52.324;5.122;2022-12-18T01:02:24;73.18;;;26.48;;
67274;SDS011;55463;52.324;5.122;2022-12-18T01:04:50;70.18;;;26.45;;
67274;SDS011;55463;52.324;5.122;2022-12-18T01:07:15;66.47;;;25.40;;
67274;SDS011;55463;52.324;5.122;2022-12-18T01:09:40;65.35;;;24.75;;
67274;SDS011;55463;52.324;5.122;2022-12-18T01:12:06;74.20;;;24.67;;
67274;SDS011;55463;52.324;5.122;2022-12-18T01:14:31;69.13;;;24.83;;
67274;SDS011;55463;52.324;5.122;2022-12-18T01:16:56;72.15;;;26.17;;
67274;SDS011;55463;52.324;5.122;2022-12-18T01:19:22;68.93;;;25.23;;
67274;SDS011;55463;52.324;5.122;2022-12-18T01:21:48;65.50;;;25.10;;
67274;SDS011;55463;52.324;5.122;2022-12-18T01:24:14;70.20;;;25.15;;
67274;SDS011;55463;52.324;5.122;2022-12-18T01:26:39;68.22;;;23.63;;
67274;SDS011;55463;52.324;5.122;2022-12-18T01:29:05;69.40;;;25.40;;
67274;SDS011;55463;52.324;5.122;2022-12-18T01:31:31;73.68;;;25.40;;
67274;SDS011;55463;52.324;5.122;2022-12-18T01:33:59;70.07;;;25.23;;
67274;SDS011;55463;52.324;5.122;2022-12-18T01:36:27;71.63;;;25.27;;
67274;SDS011;55463;52.324;5.122;2022-12-18T01:39:02;72.90;;;26.40;;
67274;SDS011;55463;52.324;5.122;2022-12-18T01:41:30;74.22;;;26.60;;
67274;SDS011;55463;52.324;5.122;2022-12-18T01:47:39;72.95;;;24.98;;
67274;SDS011;55463;52.324;5.122;2022-12-18T01:52:44;70.75;;;26.38;;
67274;SDS011;55463;52.324;5.122;2022-12-18T01:55:12;66.90;;;24.65;;
67274;SDS011;55463;52.324;5.122;2022-12-18T01:57:41;71.03;;;25.10;;
67274;SDS011;55463;52.324;5.122;2022-12-18T02:00:08;61.88;;;24.15;;
67274;SDS011;55463;52.324;5.122;2022-12-18T02:02:39;72.38;;;26.35;;
67274;SDS011;55463;52.324;5.122;2022-12-18T02:05:06;65.22;;;26.33;;
67274;SDS011;55463;52.324;5.122;2022-12-18T02:07:37;74.43;;;25.50;;
67274;SDS011;55463;52.324;5.122;2022-12-18T02:10:15;74.22;;;25.60;;
67274;SDS011;55463;52.324;5.122;2022-12-18T02:13:02;66.22;;;25.25;;
67274;SDS011;55463;52.324;5.122;2022-12-18T02:18:20;60.05;;;22.58;;
67274;SDS011;55463;52.324;5.122;2022-12-18T02:26:41;63.72;;;23.98;;
67274;SDS011;55463;52.324;5.122;2022-12-18T02:29:56;54.35;;;22.75;;
67274;SDS011;55463;52.324;5.122;2022-12-18T02:31:57;58.40;;;23.10;;
67274;SDS011;55463;52.324;5.122;2022-12-18T02:34:24;59.65;;;23.02;;
67274;SDS011;55463;52.324;5.122;2022-12-18T02:36:53;58.83;;;23.95;;
67274;SDS011;55463;52.324;5.122;2022-12-18T02:39:21;50.25;;;18.38;;
67274;SDS011;55463;52.324;5.122;2022-12-18T02:41:50;60.58;;;22.67;;
67274;SDS011;55463;52.324;5.122;2022-12-18T02:44:15;55.53;;;23.38;;
67274;SDS011;55463;52.324;5.122;2022-12-18T02:46:42;60.13;;;21.75;;
67274;SDS011;55463;52.324;5.122;2022-12-18T02:49:18;58.05;;;21.52;;
67274;SDS011;55463;52.324;5.122;2022-12-18T02:51:50;56.20;;;22.65;;
67274;SDS011;55463;52.324;5.122;2022-12-18T02:57:13;55.65;;;21.10;;
67274;SDS011;55463;52.324;5.122;2022-12-18T02:59:47;54.50;;;19.75;;
67274;SDS011;55463;52.324;5.122;2022-12-18T03:02:25;62.90;;;23.98;;
67274;SDS011;55463;52.324;5.122;2022-12-18T03:05:08;64.63;;;23.33;;
67274;SDS011;55463;52.324;5.122;2022-12-18T03:07:40;55.25;;;20.83;;
67274;SDS011;55463;52.324;5.122;2022-12-18T03:10:12;64.05;;;23.50;;
67274;SDS011;55463;52.324;5.122;2022-12-18T03:12:43;59.63;;;23.08;;
67274;SDS011;55463;52.324;5.122;2022-12-18T03:15:20;63.90;;;22.00;;
67274;SDS011;55463;52.324;5.122;2022-12-18T03:17:54;56.00;;;20.48;;
67274;SDS011;55463;52.324;5.122;2022-12-18T03:20:24;60.33;;;22.33;;
67274;SDS011;55463;52.324;5.122;2022-12-18T03:22:53;62.47;;;23.70;;
67274;SDS011;55463;52.324;5.122;2022-12-18T03:25:24;65.22;;;23.35;;
67274;SDS011;55463;52.324;5.122;2022-12-18T03:27:53;65.78;;;24.02;;
67274;SDS011;55463;52.324;5.122;2022-12-18T03:30:22;66.63;;;23.63;;
67274;SDS011;55463;52.324;5.122;2022-12-18T03:35:25;62.08;;;23.65;;
67274;SDS011;55463;52.324;5.122;2022-12-18T03:37:54;66.35;;;24.23;;
67274;SDS011;55463;52.324;5.122;2022-12-18T03:40:24;57.45;;;23.20;;
67274;SDS011;55463;52.324;5.122;2022-12-18T03:42:59;54.78;;;22.45;;
67274;SDS011;55463;52.324;5.122;2022-12-18T03:45:37;62.42;;;23.45;;
67274;SDS011;55463;52.324;5.122;2022-12-18T03:48:18;59.63;;;21.17;;
67274;SDS011;55463;52.324;5.122;2022-12-18T03:50:57;56.13;;;22.95;;
67274;SDS011;55463;52.324;5.122;2022-12-18T03:53:35;57.38;;;22.27;;
67274;SDS011;55463;52.324;5.122;2022-12-18T03:56:14;63.13;;;22.70;;
67274;SDS011;55463;52.324;5.122;2022-12-18T03:58:41;59.30;;;23.65;;
67274;SDS011;55463;52.324;5.122;2022-12-18T04:01:08;59.03;;;22.45;;
67274;SDS011;55463;52.324;5.122;2022-12-18T04:03:37;61.92;;;21.10;;
67274;SDS011;55463;52.324;5.122;2022-12-18T04:06:03;65.47;;;24.25;;
67274;SDS011;55463;52.324;5.122;2022-12-18T04:08:30;55.40;;;21.60;;
67274;SDS011;55463;52.324;5.122;2022-12-18T04:10:55;56.10;;;21.15;;
67274;SDS011;55463;52.324;5.122;2022-12-18T04:13:21;54.95;;;21.88;;
67274;SDS011;55463;52.324;5.122;2022-12-18T04:15:53;59.40;;;21.52;;
67274;SDS011;55463;52.324;5.122;2022-12-18T04:18:18;53.38;;;23.15;;
67274;SDS011;55463;52.324;5.122;2022-12-18T04:20:44;55.15;;;21.45;;
67274;SDS011;55463;52.324;5.122;2022-12-18T04:23:09;52.70;;;21.30;;
67274;SDS011;55463;52.324;5.122;2022-12-18T04:25:35;61.35;;;23.67;;
67274;SDS011;55463;52.324;5.122;2022-12-18T04:28:00;53.65;;;20.20;;
67274;SDS011;55463;52.324;5.122;2022-12-18T04:30:25;54.65;;;22.33;;
67274;SDS011;55463;52.324;5.122;2022-12-18T04:32:51;49.67;;;20.23;;
67274;SDS011;55463;52.324;5.122;2022-12-18T04:35:16;48.53;;;19.77;;
67274;SDS011;55463;52.324;5.122;2022-12-18T04:37:41;58.60;;;22.85;;
67274;SDS011;55463;52.324;5.122;2022-12-18T04:40:08;50.58;;;21.38;;
67274;SDS011;55463;52.324;5.122;2022-12-18T04:42:34;52.38;;;21.15;;
67274;SDS011;55463;52.324;5.122;2022-12-18T04:44:59;52.17;;;22.67;;
67274;SDS011;55463;52.324;5.122;2022-12-18T04:47:24;58.95;;;22.83;;
67274;SDS011;55463;52.324;5.122;2022-12-18T04:49:50;54.30;;;21.92;;
67274;SDS011;55463;52.324;5.122;2022-12-18T04:52:15;43.63;;;21.33;;
67274;SDS011;55463;52.324;5.122;2022-12-18T04:54:41;49.95;;;21.38;;
67274;SDS011;55463;52.324;5.122;2022-12-18T04:57:06;54.03;;;21.35;;
67274;SDS011;55463;52.324;5.122;2022-12-18T04:59:31;45.97;;;19.63;;
67274;SDS011;55463;52.324;5.122;2022-12-18T05:01:57;50.28;;;21.80;;
67274;SDS011;55463;52.324;5.122;2022-12-18T05:04:22;52.35;;;22.67;;
67274;SDS011;55463;52.324;5.122;2022-12-18T05:06:47;44.30;;;19.92;;
67274;SDS011;55463;52.324;5.122;2022-12-18T05:09:13;50.17;;;21.10;;
67274;SDS011;55463;52.324;5.122;2022-12-18T05:11:38;42.65;;;19.40;;
67274;SDS011;55463;52.324;5.122;2022-12-18T05:14:04;50.40;;;20.95;;
67274;SDS011;55463;52.324;5.122;2022-12-18T05:16:30;42.30;;;18.02;;
67274;SDS011;55463;52.324;5.122;2022-12-18T05:18:55;44.92;;;18.27;;
67274;SDS011;55463;52.324;5.122;2022-12-18T05:21:20;47.25;;;19.50;;
67274;SDS011;55463;52.324;5.122;2022-12-18T05:23:46;40.85;;;18.35;;
67274;SDS011;55463;52.324;5.122;2022-12-18T05:26:14;39.53;;;18.63;;
67274;SDS011;55463;52.324;5.122;2022-12-18T05:28:41;43.97;;;18.13;;
67274;SDS011;55463;52.324;5.122;2022-12-18T05:31:07;39.83;;;17.42;;
67274;SDS011;55463;52.324;5.122;2022-12-18T05:33:32;45.42;;;19.63;;
67274;SDS011;55463;52.324;5.122;2022-12-18T05:36:00;43.30;;;16.95;;
67274;SDS011;55463;52.324;5.122;2022-12-18T05:38:26;35.50;;;16.73;;
67274;SDS011;55463;52.324;5.122;2022-12-18T05:40:53;41.65;;;17.70;;
67274;SDS011;55463;52.324;5.122;2022-12-18T05:43:19;35.20;;;16.33;;
67274;SDS011;55463;52.324;5.122;2022-12-18T05:45:46;34.95;;;16.15;;
67274;SDS011;55463;52.324;5.122;2022-12-18T05:48:13;44.15;;;18.60;;
67274;SDS011;55463;52.324;5.122;2022-12-18T05:50:39;35.17;;;15.43;;
67274;SDS011;55463;52.324;5.122;2022-12-18T05:53:06;33.83;;;14.95;;
67274;SDS011;55463;52.324;5.122;2022-12-18T05:55:33;35.45;;;16.23;;
67274;SDS011;55463;52.324;5.122;2022-12-18T05:57:59;36.17;;;15.30;;
67274;SDS011;55463;52.324;5.122;2022-12-18T06:00:25;39.42;;;15.30;;
67274;SDS011;55463;52.324;5.122;2022-12-18T06:02:50;44.25;;;15.75;;
67274;SDS011;55463;52.324;5.122;2022-12-18T06:05:15;33.85;;;16.05;;
67274;SDS011;55463;52.324;5.122;2022-12-18T06:07:41;37.80;;;15.45;;
67274;SDS011;55463;52.324;5.122;2022-12-18T06:10:06;34.70;;;15.50;;
67274;SDS011;55463;52.324;5.122;2022-12-18T06:12:32;28.38;;;13.38;;
67274;SDS011;55463;52.324;5.122;2022-12-18T06:14:58;32.30;;;13.63;;
67274;SDS011;55463;52.324;5.122;2022-12-18T06:17:27;36.35;;;16.02;;
67274;SDS011;55463;52.324;5.122;2022-12-18T06:19:54;29.30;;;13.68;;
67274;SDS011;55463;52.324;5.122;2022-12-18T06:22:19;32.00;;;15.30;;
67274;SDS011;55463;52.324;5.122;2022-12-18T06:24:45;28.20;;;13.00;;
67274;SDS011;55463;52.324;5.122;2022-12-18T06:27:13;29.98;;;13.88;;
67274;SDS011;55463;52.324;5.122;2022-12-18T06:29:38;30.88;;;14.02;;
67274;SDS011;55463;52.324;5.122;2022-12-18T06:32:03;29.60;;;12.77;;
67274;SDS011;55463;52.324;5.122;2022-12-18T06:34:29;33.80;;;14.52;;
67274;SDS011;55463;52.324;5.122;2022-12-18T06:36:56;30.13;;;13.10;;
67274;SDS011;55463;52.324;5.122;2022-12-18T06:39:21;28.60;;;13.40;;
67274;SDS011;55463;52.324;5.122;2022-12-18T06:41:47;26.98;;;13.10;;
67274;SDS011;55463;52.324;5.122;2022-12-18T06:44:12;26.70;;;12.63;;
67274;SDS011;55463;52.324;5.122;2022-12-18T06:46:37;30.65;;;12.75;;
67274;SDS011;55463;52.324;5.122;2022-12-18T06:49:03;26.35;;;12.05;;
67274;SDS011;55463;52.324;5.122;2022-12-18T06:51:28;30.20;;;12.63;;
67274;SDS011;55463;52.324;5.122;2022-12-18T06:53:53;20.75;;;11.55;;
67274;SDS011;55463;52.324;5.122;2022-12-18T06:56:19;26.73;;;12.95;;
67274;SDS011;55463;52.324;5.122;2022-12-18T06:58:44;23.80;;;11.70;;
67274;SDS011;55463;52.324;5.122;2022-12-18T07:01:11;22.42;;;10.77;;
67274;SDS011;55463;52.324;5.122;2022-12-18T07:03:40;27.27;;;12.05;;
67274;SDS011;55463;52.324;5.122;2022-12-18T07:06:06;25.20;;;11.07;;
67274;SDS011;55463;52.324;5.122;2022-12-18T07:08:41;21.73;;;11.57;;
67274;SDS011;55463;52.324;5.122;2022-12-18T07:11:06;23.50;;;11.48;;
67274;SDS011;55463;52.324;5.122;2022-12-18T07:13:32;22.48;;;11.02;;
67274;SDS011;55463;52.324;5.122;2022-12-18T07:16:30;22.60;;;10.57;;
67274;SDS011;55463;52.324;5.122;2022-12-18T07:18:49;21.05;;;10.90;;
67274;SDS011;55463;52.324;5.122;2022-12-18T07:21:15;24.40;;;11.63;;
67274;SDS011;55463;52.324;5.122;2022-12-18T07:23:43;19.80;;;11.43;;
67274;SDS011;55463;52.324;5.122;2022-12-18T07:26:12;25.33;;;12.63;;
67274;SDS011;55463;52.324;5.122;2022-12-18T07:28:38;24.10;;;11.65;;
67274;SDS011;55463;52.324;5.122;2022-12-18T07:31:05;23.35;;;11.18;;
67274;SDS011;55463;52.324;5.122;2022-12-18T07:33:32;22.80;;;11.80;;
67274;SDS011;55463;52.324;5.122;2022-12-18T07:35:59;20.08;;;10.88;;
67274;SDS011;55463;52.324;5.122;2022-12-18T07:38:29;19.60;;;11.27;;
67274;SDS011;55463;52.324;5.122;2022-12-18T07:40:59;21.00;;;10.73;;
67274;SDS011;55463;52.324;5.122;2022-12-18T07:43:28;24.67;;;11.50;;
67274;SDS011;55463;52.324;5.122;2022-12-18T07:45:53;22.17;;;11.00;;
67274;SDS011;55463;52.324;5.122;2022-12-18T07:48:19;24.58;;;10.57;;
67274;SDS011;55463;52.324;5.122;2022-12-18T07:50:44;18.58;;;10.45;;
67274;SDS011;55463;52.324;5.122;2022-12-18T07:53:09;28.60;;;11.75;;
67274;SDS011;55463;52.324;5.122;2022-12-18T07:55:35;22.35;;;10.70;;
67274;SDS011;55463;52.324;5.122;2022-12-18T07:58:01;23.17;;;10.77;;
67274;SDS011;55463;52.324;5.122;2022-12-18T08:00:27;21.05;;;11.15;;
67274;SDS011;55463;52.324;5.122;2022-12-18T08:02:53;22.40;;;11.32;;
67274;SDS011;55463;52.324;5.122;2022-12-18T08:05:19;24.60;;;11.40;;
67274;SDS011;55463;52.324;5.122;2022-12-18T08:07:45;22.13;;;10.77;;
67274;SDS011;55463;52.324;5.122;2022-12-18T08:10:11;22.50;;;11.02;;
67274;SDS011;55463;52.324;5.122;2022-12-18T08:12:36;22.67;;;11.05;;
67274;SDS011;55463;52.324;5.122;2022-12-18T08:15:02;16.38;;;9.30;;
67274;SDS011;55463;52.324;5.122;2022-12-18T08:17:27;22.33;;;10.93;;
67274;SDS011;55463;52.324;5.122;2022-12-18T08:19:52;21.80;;;11.10;;
67274;SDS011;55463;52.324;5.122;2022-12-18T08:22:18;20.27;;;11.43;;
67274;SDS011;55463;52.324;5.122;2022-12-18T08:24:43;21.20;;;11.32;;
67274;SDS011;55463;52.324;5.122;2022-12-18T08:27:09;26.40;;;11.55;;
67274;SDS011;55463;52.324;5.122;2022-12-18T08:29:35;22.77;;;11.77;;
67274;SDS011;55463;52.324;5.122;2022-12-18T08:32:00;19.38;;;10.45;;
67274;SDS011;55463;52.324;5.122;2022-12-18T08:34:25;20.10;;;10.75;;
67274;SDS011;55463;52.324;5.122;2022-12-18T08:36:51;21.80;;;11.60;;
67274;SDS011;55463;52.324;5.122;2022-12-18T08:39:16;19.60;;;10.35;;
67274;SDS011;55463;52.324;5.122;2022-12-18T08:41:41;25.73;;;11.02;;
67274;SDS011;55463;52.324;5.122;2022-12-18T08:44:07;24.52;;;10.13;;
67274;SDS011;55463;52.324;5.122;2022-12-18T08:46:51;18.48;;;11.43;;
67274;SDS011;55463;52.324;5.122;2022-12-18T08:49:17;21.42;;;10.50;;
67274;SDS011;55463;52.324;5.122;2022-12-18T08:51:43;18.20;;;9.93;;
67274;SDS011;55463;52.324;5.122;2022-12-18T08:54:10;21.65;;;11.30;;
67274;SDS011;55463;52.324;5.122;2022-12-18T08:56:37;23.45;;;11.18;;
67274;SDS011;55463;52.324;5.122;2022-12-18T08:59:02;21.85;;;11.02;;
67274;SDS011;55463;52.324;5.122;2022-12-18T09:01:29;23.98;;;11.15;;
67274;SDS011;55463;52.324;5.122;2022-12-18T09:03:54;19.70;;;9.98;;
67274;SDS011;55463;52.324;5.122;2022-12-18T09:06:20;20.00;;;10.77;;
67274;SDS011;55463;52.324;5.122;2022-12-18T09:08:47;20.42;;;12.05;;
67274;SDS011;55463;52.324;5.122;2022-12-18T09:11:18;18.85;;;10.52;;
67274;SDS011;55463;52.324;5.122;2022-12-18T09:13:48;22.98;;;10.50;;
67274;SDS011;55463;52.324;5.122;2022-12-18T09:16:13;19.70;;;11.10;;
67274;SDS011;55463;52.324;5.122;2022-12-18T09:18:39;17.83;;;10.15;;
67274;SDS011;55463;52.324;5.122;2022-12-18T09:21:07;23.05;;;10.85;;
67274;SDS011;55463;52.324;5.122;2022-12-18T09:23:43;20.10;;;10.30;;
67274;SDS011;55463;52.324;5.122;2022-12-18T09:26:09;15.95;;;8.63;;
67274;SDS011;55463;52.324;5.122;2022-12-18T09:28:34;15.07;;;9.80;;
67274;SDS011;55463;52.324;5.122;2022-12-18T09:31:03;23.23;;;11.18;;
67274;SDS011;55463;52.324;5.122;2022-12-18T09:33:31;20.70;;;11.40;;
67274;SDS011;55463;52.324;5.122;2022-12-18T09:35:56;21.02;;;11.13;;
67274;SDS011;55463;52.324;5.122;2022-12-18T09:38:22;17.33;;;9.43;;
67274;SDS011;55463;52.324;5.122;2022-12-18T09:40:49;19.55;;;11.75;;
67274;SDS011;55463;52.324;5.122;2022-12-18T09:43:18;17.02;;;10.52;;
67274;SDS011;55463;52.324;5.122;2022-12-18T09:45:50;20.00;;;10.57;;
67274;SDS011;55463;52.324;5.122;2022-12-18T09:48:23;21.08;;;10.63;;
67274;SDS011;55463;52.324;5.122;2022-12-18T09:50:54;18.27;;;9.75;;
67274;SDS011;55463;52.324;5.122;2022-12-18T09:53:24;19.35;;;11.15;;
67274;SDS011;55463;52.324;5.122;2022-12-18T09:55:53;18.92;;;9.98;;
67274;SDS011;55463;52.324;5.122;2022-12-18T10:01:10;23.23;;;11.52;;
67274;SDS011;55463;52.324;5.122;2022-12-18T10:03:37;19.08;;;10.90;;
67274;SDS011;55463;52.324;5.122;2022-12-18T10:06:07;22.48;;;11.20;;
67274;SDS011;55463;52.324;5.122;2022-12-18T10:08:46;21.65;;;11.35;;
67274;SDS011;55463;52.324;5.122;2022-12-18T10:14:26;18.38;;;9.80;;
67274;SDS011;55463;52.324;5.122;2022-12-18T10:19:53;20.65;;;11.35;;
67274;SDS011;55463;52.324;5.122;2022-12-18T10:24:55;17.83;;;10.38;;
67274;SDS011;55463;52.324;5.122;2022-12-18T10:27:41;20.15;;;10.25;;
67274;SDS011;55463;52.324;5.122;2022-12-18T10:30:17;22.23;;;11.38;;
67274;SDS011;55463;52.324;5.122;2022-12-18T10:32:43;15.32;;;10.48;;
67274;SDS011;55463;52.324;5.122;2022-12-18T10:35:17;25.17;;;13.85;;
67274;SDS011;55463;52.324;5.122;2022-12-18T10:40:29;21.08;;;12.85;;
67274;SDS011;55463;52.324;5.122;2022-12-18T10:43:05;21.08;;;11.73;;
67274;SDS011;55463;52.324;5.122;2022-12-18T10:45:36;19.33;;;10.93;;
67274;SDS011;55463;52.324;5.122;2022-12-18T10:48:01;19.63;;;11.00;;
67274;SDS011;55463;52.324;5.122;2022-12-18T10:50:29;21.85;;;11.57;;
67274;SDS011;55463;52.324;5.122;2022-12-18T10:52:58;19.95;;;10.90;;
67274;SDS011;55463;52.324;5.122;2022-12-18T10:55:27;20.77;;;10.90;;
67274;SDS011;55463;52.324;5.122;2022-12-18T10:58:12;20.50;;;10.80;;
67274;SDS011;55463;52.324;5.122;2022-12-18T11:08:33;16.85;;;9.80;;
67274;SDS011;55463;52.324;5.122;2022-12-18T11:10:58;17.02;;;9.45;;
67274;SDS011;55463;52.324;5.122;2022-12-18T11:13:25;19.38;;;11.45;;
67274;SDS011;55463;52.324;5.122;2022-12-18T11:15:52;18.25;;;9.65;;
67274;SDS011;55463;52.324;5.122;2022-12-18T11:20:50;18.55;;;10.50;;
67274;SDS011;55463;52.324;5.122;2022-12-18T11:23:22;19.80;;;10.10;;
67274;SDS011;55463;52.324;5.122;2022-12-18T11:25:58;20.25;;;10.45;;
67274;SDS011;55463;52.324;5.122;2022-12-18T11:28:37;16.48;;;9.77;;
67274;SDS011;55463;52.324;5.122;2022-12-18T11:31:19;17.85;;;10.45;;
67274;SDS011;55463;52.324;5.122;2022-12-18T11:36:33;14.48;;;8.82;;
67274;SDS011;55463;52.324;5.122;2022-12-18T11:44:48;16.30;;;9.57;;
67274;SDS011;55463;52.324;5.122;2022-12-18T11:47:35;18.38;;;9.90;;
67274;SDS011;55463;52.324;5.122;2022-12-18T11:50:10;17.70;;;9.43;;
67274;SDS011;55463;52.324;5.122;2022-12-18T11:52:41;17.77;;;9.80;;
67274;SDS011;55463;52.324;5.122;2022-12-18T11:55:14;15.48;;;9.05;;
67274;SDS011;55463;52.324;5.122;2022-12-18T11:57:54;14.77;;;9.05;;
67274;SDS011;55463;52.324;5.122;2022-12-18T12:00:27;15.23;;;9.48;;
67274;SDS011;55463;52.324;5.122;2022-12-18T12:03:06;16.42;;;9.27;;
67274;SDS011;55463;52.324;5.122;2022-12-18T12:06:03;15.23;;;8.88;;
67274;SDS011;55463;52.324;5.122;2022-12-18T12:16:58;34.35;;;21.88;;
67274;SDS011;55463;52.324;5.122;2022-12-18T12:27:51;18.15;;;10.00;;
67274;SDS011;55463;52.324;5.122;2022-12-18T12:30:35;14.43;;;8.65;;
67274;SDS011;55463;52.324;5.122;2022-12-18T12:38:41;17.40;;;8.80;;
67274;SDS011;55463;52.324;5.122;2022-12-18T12:41:12;14.98;;;8.57;;
67274;SDS011;55463;52.324;5.122;2022-12-18T12:43:59;17.77;;;9.57;;
67274;SDS011;55463;52.324;5.122;2022-12-18T12:46:29;17.00;;;9.50;;
67274;SDS011;55463;52.324;5.122;2022-12-18T12:49:01;21.80;;;12.65;;
67274;SDS011;55463;52.324;5.122;2022-12-18T12:51:33;21.65;;;10.90;;
67274;SDS011;55463;52.324;5.122;2022-12-18T12:54:01;24.00;;;10.55;;
67274;SDS011;55463;52.324;5.122;2022-12-18T12:56:37;20.58;;;9.88;;
67274;SDS011;55463;52.324;5.122;2022-12-18T12:59:14;16.25;;;9.55;;
67274;SDS011;55463;52.324;5.122;2022-12-18T13:02:01;14.88;;;8.10;;
67274;SDS011;55463;52.324;5.122;2022-12-18T13:04:45;16.60;;;9.15;;
67274;SDS011;55463;52.324;5.122;2022-12-18T13:07:20;15.38;;;9.57;;
67274;SDS011;55463;52.324;5.122;2022-12-18T13:20:39;17.27;;;9.77;;
67274;SDS011;55463;52.324;5.122;2022-12-18T13:23:20;15.75;;;9.07;;
67274;SDS011;55463;52.324;5.122;2022-12-18T13:25:59;14.68;;;8.77;;
67274;SDS011;55463;52.324;5.122;2022-12-18T13:34:24;16.60;;;9.00;;
67274;SDS011;55463;52.324;5.122;2022-12-18T13:36:52;12.85;;;7.85;;
67274;SDS011;55463;52.324;5.122;2022-12-18T13:41:46;19.83;;;9.88;;
67274;SDS011;55463;52.324;5.122;2022-12-18T13:46:58;15.35;;;8.73;;
67274;SDS011;55463;52.324;5.122;2022-12-18T13:49:40;17.38;;;9.48;;
67274;SDS011;55463;52.324;5.122;2022-12-18T13:52:15;15.13;;;9.07;;
67274;SDS011;55463;52.324;5.122;2022-12-18T13:54:59;13.90;;;8.15;;
67274;SDS011;55463;52.324;5.122;2022-12-18T13:57:31;17.95;;;9.40;;
67274;SDS011;55463;52.324;5.122;2022-12-18T13:59:57;16.77;;;9.57;;
67274;SDS011;55463;52.324;5.122;2022-12-18T14:02:24;18.17;;;9.52;;
67274;SDS011;55463;52.324;5.122;2022-12-18T14:04:52;16.25;;;9.30;;
67274;SDS011;55463;52.324;5.122;2022-12-18T14:07:22;24.25;;;10.07;;
67274;SDS011;55463;52.324;5.122;2022-12-18T14:09:50;18.27;;;10.73;;
67274;SDS011;55463;52.324;5.122;2022-12-18T14:12:25;17.05;;;10.30;;
67274;SDS011;55463;52.324;5.122;2022-12-18T14:15:25;21.88;;;11.35;;
67274;SDS011;55463;52.324;5.122;2022-12-18T14:20:33;20.70;;;11.05;;
67274;SDS011;55463;52.324;5.122;2022-12-18T14:22:59;18.02;;;10.15;;
67274;SDS011;55463;52.324;5.122;2022-12-18T14:25:28;20.05;;;11.38;;
67274;SDS011;55463;52.324;5.122;2022-12-18T14:28:29;22.53;;;11.57;;
67274;SDS011;55463;52.324;5.122;2022-12-18T14:30:47;24.10;;;11.38;;
67274;SDS011;55463;52.324;5.122;2022-12-18T14:33:15;18.80;;;9.77;;
67274;SDS011;55463;52.324;5.122;2022-12-18T14:38:36;23.90;;;14.18;;
67274;SDS011;55463;52.324;5.122;2022-12-18T14:41:11;20.77;;;11.38;;
67274;SDS011;55463;52.324;5.122;2022-12-18T14:43:39;21.67;;;12.40;;
67274;SDS011;55463;52.324;5.122;2022-12-18T14:46:06;21.90;;;10.75;;
67274;SDS011;55463;52.324;5.122;2022-12-18T14:48:50;21.75;;;11.32;;
67274;SDS011;55463;52.324;5.122;2022-12-18T14:51:17;17.33;;;10.25;;
67274;SDS011;55463;52.324;5.122;2022-12-18T14:56:18;17.13;;;9.93;;
67274;SDS011;55463;52.324;5.122;2022-12-18T14:59:04;18.15;;;9.75;;
67274;SDS011;55463;52.324;5.122;2022-12-18T15:01:37;17.60;;;10.15;;
67274;SDS011;55463;52.324;5.122;2022-12-18T15:07:18;19.00;;;10.27;;
67274;SDS011;55463;52.324;5.122;2022-12-18T15:12:41;17.85;;;10.68;;
67274;SDS011;55463;52.324;5.122;2022-12-18T15:17:59;18.75;;;9.82;;
67274;SDS011;55463;52.324;5.122;2022-12-18T15:20:25;20.80;;;10.73;;
67274;SDS011;55463;52.324;5.122;2022-12-18T15:22:51;24.05;;;10.98;;
67274;SDS011;55463;52.324;5.122;2022-12-18T15:25:32;23.10;;;13.07;;
67274;SDS011;55463;52.324;5.122;2022-12-18T15:28:01;26.63;;;12.63;;
67274;SDS011;55463;52.324;5.122;2022-12-18T15:30:27;21.10;;;11.13;;
67274;SDS011;55463;52.324;5.122;2022-12-18T15:33:16;16.17;;;9.93;;
67274;SDS011;55463;52.324;5.122;2022-12-18T15:35:42;19.58;;;10.88;;
67274;SDS011;55463;52.324;5.122;2022-12-18T15:38:07;21.23;;;10.52;;
67274;SDS011;55463;52.324;5.122;2022-12-18T15:40:32;21.30;;;12.10;;
67274;SDS011;55463;52.324;5.122;2022-12-18T15:42:58;25.92;;;12.27;;
67274;SDS011;55463;52.324;5.122;2022-12-18T15:45:42;24.15;;;10.93;;
67274;SDS011;55463;52.324;5.122;2022-12-18T15:48:12;23.38;;;11.80;;
67274;SDS011;55463;52.324;5.122;2022-12-18T15:50:44;22.77;;;12.73;;
67274;SDS011;55463;52.324;5.122;2022-12-18T15:53:10;18.48;;;10.80;;
67274;SDS011;55463;52.324;5.122;2022-12-18T15:55:35;25.67;;;15.90;;
67274;SDS011;55463;52.324;5.122;2022-12-18T15:58:19;20.85;;;13.05;;
67274;SDS011;55463;52.324;5.122;2022-12-18T16:00:45;21.00;;;12.48;;
67274;SDS011;55463;52.324;5.122;2022-12-18T16:03:11;25.13;;;13.40;;
67274;SDS011;55463;52.324;5.122;2022-12-18T16:05:36;21.10;;;11.77;;
67274;SDS011;55463;52.324;5.122;2022-12-18T16:08:01;19.80;;;10.43;;
67274;SDS011;55463;52.324;5.122;2022-12-18T16:10:27;17.95;;;10.70;;
67274;SDS011;55463;52.324;5.122;2022-12-18T16:12:52;24.35;;;11.63;;
67274;SDS011;55463;52.324;5.122;2022-12-18T16:15:18;20.40;;;11.38;;
67274;SDS011;55463;52.324;5.122;2022-12-18T16:17:44;23.30;;;12.57;;
67274;SDS011;55463;52.324;5.122;2022-12-18T16:20:14;26.85;;;13.43;;
67274;SDS011;55463;52.324;5.122;2022-12-18T16:22:42;25.80;;;15.50;;
67274;SDS011;55463;52.324;5.122;2022-12-18T16:25:20;23.60;;;13.90;;
67274;SDS011;55463;52.324;5.122;2022-12-18T16:27:48;21.80;;;12.07;;
67274;SDS011;55463;52.324;5.122;2022-12-18T16:30:21;26.45;;;13.57;;
67274;SDS011;55463;52.324;5.122;2022-12-18T16:32:48;23.92;;;13.63;;